Time;durP1;ratioP1;P1;durP2;ratioP2;P2;SDS_P1;SDS_P2;PMS_P1;PMS_P2;Temp;Humidity;BMP_temperature;BMP_pressure;BME280_temperature;BME280_humidity;BME280_pressure;Samples;Min_cycle;Max_cycle;Signal;HPM_P1;HPM_P2
2021/08/28 00:00:53;;;;;;;33.63;28.30;;;;;;;25.00;100.00;100912.34;5031107;28;20173;-75
2021/08/28 00:03:19;;;;;;;33.50;27.77;;;;;;;24.96;100.00;100919.16;5030674;28;20165;-75
2021/08/28 00:05:45;;;;;;;34.47;27.90;;;;;;;24.99;100.00;100920.63;5030873;28;20499;-74
2021/08/28 00:08:11;;;;;;;34.37;27.70;;;;;;;24.87;100.00;100918.47;5030872;28;20408;-74
2021/08/28 00:10:37;;;;;;;36.10;32.10;;;;;;;24.86;100.00;100915.94;5031487;28;20217;-75
2021/08/28 00:13:03;;;;;;;33.50;29.20;;;;;;;24.95;100.00;100916.66;5030884;28;20232;-75
2021/08/28 00:15:29;;;;;;;38.17;32.47;;;;;;;24.78;100.00;100922.25;5031112;28;20249;-75
2021/08/28 00:17:54;;;;;;;35.77;31.30;;;;;;;24.78;100.00;100930.34;5031073;28;20417;-74
2021/08/28 00:20:20;;;;;;;33.80;29.87;;;;;;;24.73;100.00;100934.63;5030150;28;20304;-74
2021/08/28 00:22:45;;;;;;;36.10;31.50;;;;;;;24.82;100.00;100928.13;5029897;28;20201;-74
2021/08/28 00:25:12;;;;;;;35.57;30.40;;;;;;;24.75;100.00;100933.41;5030076;28;20238;-75
2021/08/28 00:27:39;;;;;;;35.00;31.00;;;;;;;24.78;100.00;100927.66;5029755;28;20192;-75
2021/08/28 00:30:05;;;;;;;44.57;30.80;;;;;;;24.69;100.00;100930.66;5030204;28;20444;-75
2021/08/28 00:32:31;;;;;;;37.87;31.17;;;;;;;24.74;100.00;100934.44;5029510;28;20881;-73
2021/08/28 00:34:56;;;;;;;35.17;31.37;;;;;;;24.65;100.00;100932.06;5029777;28;20483;-75
2021/08/28 00:37:22;;;;;;;40.00;30.63;;;;;;;24.54;100.00;100936.06;5029791;28;20177;-75
2021/08/28 00:39:47;;;;;;;38.60;32.80;;;;;;;24.63;100.00;100940.28;5029680;28;20173;-76
2021/08/28 00:42:13;;;;;;;37.50;31.13;;;;;;;24.65;100.00;100945.50;5030005;28;20264;-76
2021/08/28 00:44:42;;;;;;;41.77;31.80;;;;;;;24.58;100.00;100937.38;5029953;28;20629;-75
2021/08/28 00:47:08;;;;;;;40.27;31.53;;;;;;;24.58;100.00;100940.88;5030117;28;20678;-74
2021/08/28 00:49:33;;;;;;;40.83;32.23;;;;;;;24.53;100.00;100951.34;5028773;28;20460;-80
2021/08/28 00:52:03;;;;;;;37.63;32.27;;;;;;;24.47;100.00;100952.09;5029958;28;20220;-74
2021/08/28 00:54:30;;;;;;;38.60;33.30;;;;;;;24.58;100.00;100954.31;5029742;28;20181;-74
2021/08/28 00:56:56;;;;;;;41.00;33.40;;;;;;;24.52;100.00;100948.88;5029620;28;20413;-74
2021/08/28 00:59:21;;;;;;;39.90;33.00;;;;;;;24.52;100.00;100949.69;5029629;28;20396;-75
2021/08/28 01:01:48;;;;;;;40.40;31.30;;;;;;;24.50;100.00;100943.69;5029373;28;20186;-75
2021/08/28 01:04:18;;;;;;;37.87;30.80;;;;;;;24.55;100.00;100943.94;5029555;28;20216;-74
2021/08/28 01:06:51;;;;;;;39.30;32.30;;;;;;;24.54;100.00;100950.31;5029184;28;20428;-74
2021/08/28 01:09:19;;;;;;;38.80;31.70;;;;;;;24.55;100.00;100948.47;5029553;28;20412;-75
2021/08/28 01:12:08;;;;;;;40.67;31.17;;;;;;;24.58;100.00;100934.69;5029239;28;20461;-74
2021/08/28 01:14:38;;;;;;;37.90;31.10;;;;;;;24.59;100.00;100941.72;5029794;28;20417;-75
2021/08/28 01:17:07;;;;;;;42.53;31.80;;;;;;;24.58;100.00;100929.31;5029365;28;20458;-73
2021/08/28 01:19:36;;;;;;;34.63;30.77;;;;;;;24.57;100.00;100931.16;5029137;28;20411;-74
2021/08/28 01:22:07;;;;;;;38.93;32.47;;;;;;;24.66;100.00;100933.72;4984724;28;1305404;-74
2021/08/28 01:24:35;;;;;;;40.23;32.90;;;;;;;24.63;100.00;100933.06;5030327;28;20185;-75
2021/08/28 01:27:15;;;;;;;35.43;31.53;;;;;;;24.67;100.00;100930.84;5030294;28;20704;-75
2021/08/28 01:29:42;;;;;;;34.53;30.30;;;;;;;24.73;100.00;100931.94;5030795;28;20423;-75
2021/08/28 01:32:09;;;;;;;36.63;30.43;;;;;;;24.67;100.00;100936.22;5030113;28;20462;-74
2021/08/28 01:34:37;;;;;;;37.57;32.40;;;;;;;24.61;100.00;100937.81;5030280;28;20450;-75
2021/08/28 01:37:04;;;;;;;41.40;32.40;;;;;;;24.59;100.00;100944.41;5030244;28;20412;-75
2021/08/28 01:39:32;;;;;;;41.43;33.07;;;;;;;24.62;100.00;100936.78;5029775;28;20397;-74
2021/08/28 01:42:01;;;;;;;41.33;33.37;;;;;;;24.64;100.00;100936.63;5029945;28;20550;-74
2021/08/28 01:44:27;;;;;;;38.87;30.90;;;;;;;24.62;100.00;100935.94;5029907;28;20407;-74
2021/08/28 01:46:53;;;;;;;39.37;30.80;;;;;;;24.61;100.00;100931.59;5009195;28;20813;-76
2021/08/28 01:49:21;;;;;;;40.60;29.17;;;;;;;24.61;100.00;100931.59;5026669;28;21051;-75
2021/08/28 01:51:48;;;;;;;38.60;32.00;;;;;;;24.66;100.00;100933.72;5029724;28;20480;-74
2021/08/28 01:54:14;;;;;;;39.63;29.77;;;;;;;24.65;100.00;100934.75;5029873;28;20400;-75
2021/08/28 01:56:39;;;;;;;38.73;32.10;;;;;;;24.59;100.00;100922.91;5030054;28;20909;-75
2021/08/28 01:59:05;;;;;;;36.77;31.97;;;;;;;24.51;100.00;100931.91;5029960;28;20539;-73
2021/08/28 02:01:31;;;;;;;38.07;30.47;;;;;;;24.51;100.00;100929.22;5033130;28;20170;-75
2021/08/28 02:03:56;;;;;;;37.33;31.97;;;;;;;24.47;100.00;100935.97;5033492;28;20173;-74
2021/08/28 02:06:50;;;;;;;37.13;30.97;;;;;;;24.45;100.00;100932.66;5033328;28;20174;-74
2021/08/28 02:09:26;;;;;;;38.40;30.40;;;;;;;24.32;100.00;100935.16;5005024;28;20243;-75
2021/08/28 02:11:59;;;;;;;36.30;30.43;;;;;;;24.29;100.00;100936.34;5032915;28;20550;-75
2021/08/28 02:14:32;;;;;;;42.77;31.80;;;;;;;24.33;100.00;100926.94;5033101;28;20404;-74
2021/08/28 02:17:03;;;;;;;47.03;30.40;;;;;;;24.30;100.00;100935.34;5032979;28;20412;-75
2021/08/28 02:19:32;;;;;;;41.47;31.47;;;;;;;24.29;100.00;100932.84;5032926;28;20405;-75
2021/08/28 02:22:01;;;;;;;43.23;33.37;;;;;;;24.14;100.00;100929.34;5013049;28;20508;-74
2021/08/28 02:24:31;;;;;;;47.20;32.17;;;;;;;24.12;100.00;100928.69;5032917;28;20404;-74
2021/08/28 02:27:09;;;;;;;37.07;30.93;;;;;;;23.99;100.00;100930.19;5032854;28;20429;-74
2021/08/28 02:29:40;;;;;;;49.33;34.90;;;;;;;23.90;100.00;100925.09;5033254;28;20424;-75
2021/08/28 02:32:07;;;;;;;44.60;33.40;;;;;;;23.86;100.00;100926.47;5032490;28;20456;-75
2021/08/28 02:34:34;;;;;;;44.57;35.00;;;;;;;23.82;100.00;100938.59;5032877;28;20835;-74
2021/08/28 02:37:02;;;;;;;45.17;35.93;;;;;;;23.81;100.00;100935.09;5032914;28;20389;-75
2021/08/28 02:39:29;;;;;;;49.47;37.70;;;;;;;23.77;100.00;100931.94;5032313;28;20473;-75
2021/08/28 02:41:56;;;;;;;43.73;34.10;;;;;;;23.68;100.00;100943.75;5032810;28;20409;-73
2021/08/28 02:44:25;;;;;;;46.07;35.93;;;;;;;23.71;100.00;100947.91;5032553;28;20391;-73
2021/08/28 02:46:53;;;;;;;44.50;33.17;;;;;;;23.82;100.00;100943.97;5014564;28;20834;-75
2021/08/28 02:49:22;;;;;;;47.83;34.10;;;;;;;23.81;100.00;100943.16;5032666;28;20404;-74
2021/08/28 02:51:49;;;;;;;44.50;35.30;;;;;;;23.72;100.00;100947.72;5032360;28;20510;-75
2021/08/28 02:54:17;;;;;;;50.10;36.67;;;;;;;23.70;100.00;100957.00;5032566;28;20482;-75
2021/08/28 02:56:48;;;;;;;41.87;34.53;;;;;;;23.68;100.00;100959.88;5014817;28;20425;-73
2021/08/28 02:59:17;;;;;;;44.63;35.97;;;;;;;23.68;100.00;100959.88;5028799;28;20408;-74
2021/08/28 03:01:44;;;;;;;47.63;35.13;;;;;;;23.73;100.00;100962.00;5032473;28;20421;-74
2021/08/28 03:04:11;;;;;;;44.23;34.00;;;;;;;23.75;100.00;100962.66;5032368;28;20415;-74
2021/08/28 03:06:37;;;;;;;41.27;33.53;;;;;;;23.67;100.00;100971.63;5032545;28;20948;-74
2021/08/28 03:09:03;;;;;;;46.37;35.60;;;;;;;23.68;100.00;100972.44;5032406;28;20500;-74
2021/08/28 03:11:29;;;;;;;44.53;36.40;;;;;;;23.67;100.00;100977.00;5030990;28;20478;-74
2021/08/28 03:13:55;;;;;;;51.87;38.37;;;;;;;23.71;100.00;100983.63;5032262;28;20170;-75
2021/08/28 03:16:23;;;;;;;52.73;37.53;;;;;;;23.68;100.00;100984.03;5031748;28;20408;-74
2021/08/28 03:18:52;;;;;;;76.63;39.47;;;;;;;23.73;100.00;100984.31;5031920;28;20158;-74
2021/08/28 03:21:19;;;;;;;50.77;38.23;;;;;;;23.75;100.00;100995.69;5031885;28;20467;-74
2021/08/28 03:23:47;;;;;;;51.87;38.10;;;;;;;23.72;100.00;101000.56;5032325;28;21059;-74
2021/08/28 03:26:14;;;;;;;47.33;37.27;;;;;;;23.65;100.00;100999.63;5031963;28;20405;-74
2021/08/28 03:28:40;;;;;;;46.90;36.87;;;;;;;23.60;100.00;100996.66;5031958;28;20420;-75
2021/08/28 03:31:07;;;;;;;48.43;39.93;;;;;;;23.53;100.00;100999.22;5031841;28;20423;-75
2021/08/28 03:33:33;;;;;;;49.37;36.90;;;;;;;23.48;100.00;101013.16;5031772;28;20405;-75
2021/08/28 03:35:59;;;;;;;52.23;39.00;;;;;;;23.41;100.00;101008.69;5032146;28;20921;-74
2021/08/28 03:38:24;;;;;;;51.90;38.03;;;;;;;23.37;100.00;101012.75;5032022;28;20407;-74
2021/08/28 03:40:50;;;;;;;53.77;39.77;;;;;;;23.34;100.00;101013.09;5031653;28;20180;-75
2021/08/28 03:43:16;;;;;;;59.80;43.97;;;;;;;23.35;100.00;101021.00;5031774;28;20265;-73
2021/08/28 03:45:41;;;;;;;67.50;47.93;;;;;;;23.35;100.00;101022.81;5031688;28;20258;-75
2021/08/28 03:48:07;;;;;;;67.20;50.03;;;;;;;23.34;100.00;101024.66;5031222;28;20216;-74
2021/08/28 03:50:34;;;;;;;70.33;49.40;;;;;;;23.37;100.00;101028.84;5031246;28;20183;-74
2021/08/28 03:52:59;;;;;;;71.93;52.67;;;;;;;23.41;100.00;101022.94;5031044;28;20547;-75
2021/08/28 03:55:24;;;;;;;77.43;55.37;;;;;;;23.43;100.00;101028.16;5031582;28;20475;-74
2021/08/28 03:57:50;;;;;;;77.00;53.73;;;;;;;23.43;100.00;101037.03;5031157;28;20174;-75
2021/08/28 04:00:15;;;;;;;75.07;49.80;;;;;;;23.44;100.00;101033.31;5031104;28;20538;-74
2021/08/28 04:02:41;;;;;;;66.07;43.50;;;;;;;23.44;100.00;101032.50;5031050;28;20218;-74
2021/08/28 04:05:07;;;;;;;56.80;45.07;;;;;;;23.48;100.00;101031.94;5030918;28;20266;-75
2021/08/28 04:07:37;;;;;;;54.90;42.50;;;;;;;23.57;100.00;101035.38;5031110;28;20169;-75
2021/08/28 04:10:03;;;;;;;54.70;41.17;;;;;;;23.60;100.00;101034.22;5031184;28;20162;-75
2021/08/28 04:12:28;;;;;;;57.50;40.37;;;;;;;23.56;100.00;101035.56;5030808;28;20447;-75
2021/08/28 04:14:54;;;;;;;56.90;38.30;;;;;;;23.60;100.00;101032.38;5030857;28;20169;-75
2021/08/28 04:17:19;;;;;;;52.07;39.40;;;;;;;23.64;100.00;101041.72;5031035;28;20157;-75
2021/08/28 04:19:45;;;;;;;52.23;39.03;;;;;;;23.67;100.00;101046.75;5030871;28;20549;-75
2021/08/28 04:22:10;;;;;;;57.33;41.13;;;;;;;23.80;100.00;101044.31;5030182;28;20209;-75
2021/08/28 04:24:35;;;;;;;57.97;40.07;;;;;;;23.76;100.00;101042.16;5030782;28;20166;-75
2021/08/28 04:27:03;;;;;;;53.57;38.00;;;;;;;23.80;100.00;101047.00;5030646;28;20178;-74
2021/08/28 04:29:29;;;;;;;59.90;40.60;;;;;;;23.87;100.00;101040.88;5031133;28;20161;-75
2021/08/28 04:31:54;;;;;;;65.17;41.17;;;;;;;23.95;100.00;101044.31;5030431;28;20479;-75
2021/08/28 04:34:20;;;;;;;56.87;39.80;;;;;;;24.07;100.00;101050.06;5030399;28;20204;-74
2021/08/28 04:36:45;;;;;;;61.07;41.43;;;;;;;24.14;100.00;101044.81;5030407;28;20673;-75
2021/08/28 04:39:11;;;;;;;71.20;45.80;;;;;;;24.18;100.00;101052.34;5030146;28;20173;-75
2021/08/28 04:41:36;;;;;;;63.70;44.10;;;;;;;24.21;100.00;101048.44;5030518;28;20193;-77
2021/08/28 04:44:02;;;;;;;69.97;46.23;;;;;;;24.20;100.00;101046.78;5030712;28;20177;-74
2021/08/28 04:46:28;;;;;;;65.40;45.50;;;;;;;24.33;100.00;101046.97;5009360;28;20194;-73
2021/08/28 04:48:53;;;;;;;67.97;43.93;;;;;;;24.35;100.00;101037.72;5023639;28;20673;-75
2021/08/28 04:51:19;;;;;;;71.67;46.13;;;;;;;24.45;100.00;101040.13;5030268;28;20165;-73
2021/08/28 04:53:44;;;;;;;69.07;47.30;;;;;;;24.51;100.00;101036.69;5030620;28;20177;-74
2021/08/28 04:56:09;;;;;;;74.83;47.80;;;;;;;24.58;100.00;101047.53;5030028;28;20166;-74
2021/08/28 04:58:35;;;;;;;69.73;49.10;;;;;;;24.71;100.00;101039.66;5030730;28;20157;-74
2021/08/28 05:01:00;;;;;;;67.60;49.93;;;;;;;24.87;100.00;101041.31;5030222;28;20174;-74
2021/08/28 05:03:26;;;;;;;84.03;56.53;;;;;;;24.95;100.00;101034.97;5030205;28;20604;-75
2021/08/28 05:05:54;;;;;;;86.00;56.33;;;;;;;24.96;100.00;101044.72;5029103;28;20216;-74
2021/08/28 05:08:22;;;;;;;86.57;58.00;;;;;;;25.04;100.00;101048.13;5029885;28;20170;-72
2021/08/28 05:10:48;;;;;;;106.10;67.57;;;;;;;24.97;100.00;101044.50;5029697;28;20498;-74
2021/08/28 05:13:13;;;;;;;107.43;73.17;;;;;;;24.94;100.00;101047.59;5030647;28;20538;-73
2021/08/28 05:15:39;;;;;;;112.20;76.30;;;;;;;24.87;100.00;101049.38;5029809;28;20920;-75
2021/08/28 05:18:05;;;;;;;112.10;72.23;;;;;;;24.86;100.00;101053.03;5029980;28;20529;-75
2021/08/28 05:20:31;;;;;;;105.47;71.40;;;;;;;24.87;100.00;101052.88;5029088;28;20304;-75
2021/08/28 05:22:56;;;;;;;101.70;65.37;;;;;;;24.88;100.00;101049.16;5030126;28;20189;-75
2021/08/28 05:25:22;;;;;;;84.60;57.23;;;;;;;24.78;100.00;101053.16;5029933;28;20490;-74
2021/08/28 05:27:47;;;;;;;86.90;56.90;;;;;;;24.68;100.00;101050.75;5029602;28;20173;-74
2021/08/28 05:30:13;;;;;;;79.27;54.57;;;;;;;24.66;100.00;101062.75;5030700;28;20193;-75
2021/08/28 05:32:40;;;;;;;73.23;47.50;;;;;;;24.62;100.00;101046.97;5029921;28;20201;-75
2021/08/28 05:35:06;;;;;;;75.63;47.20;;;;;;;24.55;100.00;101061.34;5031533;28;20528;-74
2021/08/28 05:37:31;;;;;;;59.17;41.57;;;;;;;24.49;100.00;101054.88;5034035;28;20403;-74
2021/08/28 05:39:57;;;;;;;68.97;44.80;;;;;;;24.53;100.00;101055.31;5033780;28;20788;-75
2021/08/28 05:42:22;;;;;;;60.50;41.90;;;;;;;24.64;100.00;101060.25;5032306;28;20256;-76
2021/08/28 05:44:48;;;;;;;61.00;43.07;;;;;;;24.68;100.00;101056.16;5021362;28;20169;-75
2021/08/28 05:47:13;;;;;;;51.17;39.07;;;;;;;24.74;100.00;101057.25;5033380;28;20217;-75
2021/08/28 05:49:39;;;;;;;47.47;35.00;;;;;;;24.91;100.00;101047.94;5033349;28;20212;-75
2021/08/28 05:52:04;;;;;;;36.73;29.93;;;;;;;25.03;100.00;101043.78;5033107;28;20277;-75
2021/08/28 05:54:30;;;;;;;35.27;28.70;;;;;;;25.07;100.00;101037.00;5033346;28;20180;-73
2021/08/28 05:56:55;;;;;;;36.70;29.97;;;;;;;24.93;100.00;101037.81;5033440;28;20181;-74
2021/08/28 05:59:21;;;;;;;34.53;26.80;;;;;;;24.99;100.00;101044.31;5033479;28;20239;-75
2021/08/28 06:01:46;;;;;;;36.80;27.37;;;;;;;25.08;100.00;101029.75;5033511;28;20217;-75
2021/08/28 06:04:12;;;;;;;32.70;25.73;;;;;;;25.22;100.00;101038.81;5033230;28;20177;-75
2021/08/28 06:06:37;;;;;;;33.13;24.50;;;;;;;25.21;100.00;101037.16;5033027;28;20256;-74
2021/08/28 06:09:03;;;;;;;34.30;23.77;;;;;;;25.16;100.00;101035.88;5033070;28;20258;-74
2021/08/28 06:11:28;;;;;;;33.83;24.13;;;;;;;25.15;100.00;101047.63;5032710;28;20193;-73
2021/08/28 06:13:54;;;;;;;30.60;25.23;;;;;;;25.15;100.00;101041.41;5032632;28;20177;-75
2021/08/28 06:16:20;;;;;;;31.87;23.20;;;;;;;25.04;100.00;101037.38;5032973;28;20674;-75
2021/08/28 06:18:45;;;;;;;28.97;22.23;;;;;;;24.85;100.00;101043.31;5029640;28;20175;-74
2021/08/28 06:21:10;;;;;;;31.50;23.33;;;;;;;24.84;100.00;101037.13;5021934;28;20274;-74
2021/08/28 06:23:36;;;;;;;34.80;22.83;;;;;;;24.98;100.00;101030.03;5032838;28;20675;-75
2021/08/28 06:26:02;;;;;;;33.00;22.63;;;;;;;24.93;100.00;101037.81;5033016;28;20177;-78
2021/08/28 06:28:27;;;;;;;29.40;21.93;;;;;;;25.11;100.00;101035.59;5032606;28;20300;-75
2021/08/28 06:30:53;;;;;;;27.70;21.93;;;;;;;25.17;100.00;101029.47;5032633;28;20170;-75
2021/08/28 06:33:18;;;;;;;29.43;24.03;;;;;;;25.16;100.00;101027.81;5032795;28;20283;-74
2021/08/28 06:35:44;;;;;;;29.47;23.30;;;;;;;25.22;100.00;101028.03;5018753;28;20162;-75
2021/08/28 06:38:10;;;;;;;30.70;23.23;;;;;;;25.08;100.00;101030.59;5032579;28;20228;-75
2021/08/28 06:40:36;;;;;;;29.73;23.50;;;;;;;25.15;100.00;101019.91;5032438;28;20182;-75
2021/08/28 06:43:01;;;;;;;30.03;23.60;;;;;;;25.20;100.00;101027.41;5033032;28;20484;-75
2021/08/28 06:45:27;;;;;;;28.97;21.40;;;;;;;25.39;100.00;101022.25;5032163;28;20685;-74
2021/08/28 06:47:54;;;;;;;25.00;21.83;;;;;;;25.40;100.00;101029.28;5031782;28;20189;-75
2021/08/28 06:50:19;;;;;;;26.73;22.43;;;;;;;25.32;100.00;101023.19;5032510;28;20170;-74
2021/08/28 06:52:45;;;;;;;28.90;22.93;;;;;;;25.40;100.00;101017.69;5032200;28;20460;-75
2021/08/28 06:55:10;;;;;;;29.33;23.80;;;;;;;25.48;100.00;101025.63;5032212;28;20178;-74
2021/08/28 06:57:36;;;;;;;28.90;23.10;;;;;;;25.45;100.00;101020.63;5032062;28;20185;-74
2021/08/28 07:00:03;;;;;;;31.13;23.20;;;;;;;25.36;100.00;101027.16;5032400;28;20169;-75
2021/08/28 07:02:29;;;;;;;29.90;23.80;;;;;;;25.40;100.00;101029.28;5032102;28;20549;-74
2021/08/28 07:04:54;;;;;;;30.83;23.43;;;;;;;25.55;100.00;101029.22;5031898;28;20405;-74
2021/08/28 07:07:20;;;;;;;29.20;23.33;;;;;;;25.61;100.00;101025.72;5032037;28;20235;-73
2021/08/28 07:09:45;;;;;;;30.00;24.50;;;;;;;25.66;100.00;101023.28;5032288;28;20170;-74
2021/08/28 07:12:11;;;;;;;30.13;24.87;;;;;;;25.70;100.00;101021.88;5031771;28;20217;-75
2021/08/28 07:14:39;;;;;;;30.33;24.00;;;;;;;25.75;100.00;101015.09;5032041;28;20192;-74
2021/08/28 07:17:05;;;;;;;28.77;24.80;;;;;;;25.75;100.00;101012.41;5031568;28;20182;-74
2021/08/28 07:19:30;;;;;;;30.67;25.37;;;;;;;25.85;100.00;101004.84;5031368;28;20500;-75
2021/08/28 07:21:56;;;;;;;31.60;24.20;;;;;;;25.97;100.00;101003.25;5031662;28;20577;-75
2021/08/28 07:24:21;;;;;;;37.10;25.67;;;;;;;26.09;100.00;100990.09;5031319;28;20216;-74
2021/08/28 07:26:47;;;;;;;33.60;24.07;;;;;;;26.07;100.00;100987.59;5031715;28;20173;-75
2021/08/28 07:29:12;;;;;;;29.63;23.37;;;;;;;26.16;100.00;100986.41;5032009;28;20193;-74
2021/08/28 07:31:38;;;;;;;33.47;25.97;;;;;;;26.39;100.00;100982.59;5031629;28;20551;-74
2021/08/28 07:34:03;;;;;;;33.13;24.93;;;;;;;26.47;100.00;100985.13;5031159;28;20208;-73
2021/08/28 07:36:29;;;;;;;27.60;23.90;;;;;;;26.43;100.00;100981.16;5031382;28;20194;-75
2021/08/28 07:38:54;;;;;;;29.53;24.10;;;;;;;26.43;100.00;100984.69;5031367;28;20181;-75
2021/08/28 07:41:20;;;;;;;30.63;23.93;;;;;;;26.33;100.00;100976.13;5024296;28;20863;-75
2021/08/28 07:43:45;;;;;;;30.93;24.50;;;;;;;26.51;100.00;100980.97;5024039;28;20260;-76
2021/08/28 07:46:12;;;;;;;30.50;23.90;;;;;;;26.70;100.00;100982.09;5030893;28;20185;-75
2021/08/28 07:48:37;;;;;;;31.60;23.80;;;;;;;26.85;100.00;100979.25;5031046;28;20184;-74
2021/08/28 07:51:03;;;;;;;37.57;26.30;;;;;;;26.99;100.00;100978.25;5031020;28;20401;-75
2021/08/28 07:53:29;;;;;;;30.37;26.07;;;;;;;27.17;100.00;100975.81;5009694;28;20344;-78
2021/08/28 07:55:54;;;;;;;28.70;23.00;;;;;;;27.27;100.00;100975.41;5026197;28;20180;-75
2021/08/28 07:58:20;;;;;;;27.70;23.33;;;;;;;27.32;100.00;100981.03;5030678;28;20249;-75
2021/08/28 08:00:45;;;;;;;29.23;23.40;;;;;;;27.53;100.00;100971.91;5031270;28;20235;-75
2021/08/28 08:03:11;;;;;;;24.50;21.20;;;;;;;27.60;100.00;100978.94;5030963;28;20572;-75
2021/08/28 08:05:36;;;;;;;25.43;22.10;;;;;;;27.84;100.00;100974.81;5031437;28;20169;-76
2021/08/28 08:08:02;;;;;;;27.90;21.53;;;;;;;28.09;100.00;100974.94;5030841;28;20177;-76
2021/08/28 08:10:27;;;;;;;28.50;22.40;;;;;;;28.14;100.00;100969.75;5030568;28;20165;-76
2021/08/28 08:12:53;;;;;;;32.87;28.70;;;;;;;28.32;100.00;100965.56;5013297;28;20201;-76
2021/08/28 08:15:19;;;;;;;27.83;23.07;;;;;;;28.33;100.00;100962.63;5030685;28;20185;-74
2021/08/28 08:17:45;;;;;;;28.57;23.43;;;;;;;28.26;100.00;100966.38;5030134;28;20178;-75
2021/08/28 08:20:12;;;;;;;27.87;23.77;;;;;;;28.37;100.00;100961.19;5029805;28;20459;-75
2021/08/28 08:22:37;;;;;;;26.30;23.23;;;;;;;28.37;100.00;100953.06;5030893;28;20707;-76
2021/08/28 08:25:05;;;;;;;25.83;22.70;;;;;;;28.45;100.00;100969.03;5030928;28;20407;-74
2021/08/28 08:27:30;;;;;;;28.53;20.60;;;;;;;28.59;100.00;100959.00;5030466;28;20235;-75
2021/08/28 08:29:57;;;;;;;23.50;21.10;;;;;;;28.66;100.00;100958.97;5030474;28;20428;-75
2021/08/28 08:32:22;;;;;;;23.90;21.40;;;;;;;28.75;100.00;100950.38;5030143;28;20200;-75
2021/08/28 08:34:49;;;;;;;24.70;20.17;;;;;;;28.81;100.00;100954.09;5030099;28;20416;-75
2021/08/28 08:37:15;;;;;;;23.97;21.43;;;;;;;28.85;100.00;100949.06;5029108;28;20197;-76
2021/08/28 08:39:40;;;;;;;23.83;21.33;;;;;;;28.84;100.00;100958.22;5017694;28;20487;-74
2021/08/28 08:42:09;;;;;;;21.47;19.20;;;;;;;28.84;100.00;100945.53;5030429;28;20689;-75
2021/08/28 08:44:36;;;;;;;23.50;21.07;;;;;;;28.90;100.00;100952.81;5012542;28;20661;-74
2021/08/28 08:47:02;;;;;;;22.23;19.70;;;;;;;29.04;100.00;100947.31;5030210;28;20443;-81
2021/08/28 08:49:27;;;;;;;21.97;19.80;;;;;;;29.11;100.00;100937.28;5029942;28;20405;-76
2021/08/28 08:51:54;;;;;;;21.67;19.17;;;;;;;29.22;100.00;100934.69;5029984;28;20580;-75
2021/08/28 08:54:20;;;;;;;21.27;19.00;;;;;;;29.27;100.00;100932.16;5030090;28;20400;-75
2021/08/28 08:56:46;;;;;;;23.33;19.53;;;;;;;29.39;100.00;100918.69;5029797;28;20409;-75
2021/08/28 08:59:13;;;;;;;20.83;18.73;;;;;;;29.40;100.00;100917.69;5029605;28;20443;-76
2021/08/28 09:01:38;;;;;;;25.10;20.50;;;;;;;29.50;100.00;100919.91;5029578;28;20411;-76
2021/08/28 09:04:04;;;;;;;20.43;18.33;;;;;;;29.50;100.00;100925.31;5029736;28;20405;-76
2021/08/28 09:06:29;;;;;;;25.90;19.83;;;;;;;29.59;100.00;100917.72;5029374;28;20521;-76
2021/08/28 09:08:55;;;;;;;19.97;17.97;;;;;;;29.77;100.00;100918.56;5029689;28;20360;-75
2021/08/28 09:11:23;;;;;;;19.80;16.47;;;;;;;29.78;100.00;100917.53;5033063;28;20170;-75
2021/08/28 09:13:50;;;;;;;20.83;17.90;;;;;;;29.83;100.00;100914.13;5015889;28;20602;-73
2021/08/28 09:16:32;;;;;;;20.33;15.97;;;;;;;29.96;100.00;100914.00;5033704;28;20436;-77
2021/08/28 09:18:58;;;;;;;18.47;15.80;;;;;;;29.94;100.00;100912.56;5033377;28;20966;-75
2021/08/28 09:21:33;;;;;;;19.60;16.07;;;;;;;30.15;100.00;100916.72;5033258;28;20567;-74
2021/08/28 09:24:06;;;;;;;18.10;16.30;;;;;;;30.23;100.00;100902.84;5033568;28;20408;-75
2021/08/28 09:26:35;;;;;;;19.73;16.93;;;;;;;30.29;100.00;100901.94;5033503;28;20400;-75
2021/08/28 09:29:02;;;;;;;18.90;16.13;;;;;;;30.27;100.00;100899.47;5034139;28;20430;-76
2021/08/28 09:31:44;;;;;;;17.40;15.53;;;;;;;30.35;100.00;100904.56;5024277;28;20421;-75
2021/08/28 09:34:22;;;;;;;21.77;17.53;;;;;;;30.43;100.00;100899.88;5031383;28;20412;-77
2021/08/28 09:37:11;;;;;;;16.67;14.37;;;;;;;30.44;100.00;100902.38;5033536;28;20412;-75
2021/08/28 09:39:39;;;;;;;16.47;14.70;;;;;;;30.37;100.00;100891.59;5033480;28;20408;-76
2021/08/28 09:42:05;;;;;;;13.23;11.90;;;;;;;30.47;100.00;100895.66;5033367;28;20424;-74
2021/08/28 09:44:39;;;;;;;14.50;12.47;;;;;;;30.58;100.00;100892.97;5033004;28;20474;-75
2021/08/28 09:47:08;;;;;;;16.40;13.03;;;;;;;30.69;100.00;100896.84;5033725;28;20499;-76
2021/08/28 09:49:34;;;;;;;16.97;13.67;;;;;;;30.66;100.00;100897.28;5033326;28;20496;-76
2021/08/28 09:51:59;;;;;;;15.77;14.10;;;;;;;30.61;100.00;100903.41;5033343;28;20454;-75
2021/08/28 09:54:25;;;;;;;16.10;14.40;;;;;;;30.50;100.00;100903.34;5033294;28;20613;-76
2021/08/28 09:57:01;;;;;;;15.20;13.33;;;;;;;30.53;100.00;100903.72;5033104;28;20170;-76
2021/08/28 09:59:27;;;;;;;14.23;12.70;;;;;;;30.50;100.00;100920.44;5033094;28;21283;-75
2021/08/28 10:01:52;;;;;;;14.70;13.20;;;;;;;30.45;100.00;100917.56;5033455;28;20409;-75
2021/08/28 10:04:18;;;;;;;16.03;13.60;;;;;;;30.37;100.00;100926.84;5033052;28;20486;-76
2021/08/28 10:06:48;;;;;;;17.00;12.97;;;;;;;30.29;100.00;100923.63;5033020;28;20656;-76
2021/08/28 10:09:15;;;;;;;15.67;12.70;;;;;;;30.27;100.00;100920.34;5033157;28;20177;-74
2021/08/28 10:11:47;;;;;;;16.50;11.90;;;;;;;30.29;100.00;100923.63;5032982;28;20475;-74
2021/08/28 10:14:20;;;;;;;13.27;11.97;;;;;;;30.31;100.00;100921.53;5032939;28;20439;-74
2021/08/28 10:16:48;;;;;;;15.97;13.00;;;;;;;30.36;100.00;100918.97;5032680;28;20949;-75
2021/08/28 10:19:16;;;;;;;17.00;12.07;;;;;;;30.19;100.00;100917.94;5032235;28;20543;-74
2021/08/28 10:21:43;;;;;;;14.73;12.90;;;;;;;30.10;100.00;100926.38;5031883;28;20456;-76
2021/08/28 10:24:12;;;;;;;16.40;11.60;;;;;;;29.99;100.00;100926.25;5032519;28;20435;-75
2021/08/28 10:26:38;;;;;;;15.03;12.73;;;;;;;30.15;100.00;100930.28;5032363;28;20435;-76
2021/08/28 10:29:04;;;;;;;15.50;11.23;;;;;;;30.27;100.00;100920.34;5032425;28;20409;-76
2021/08/28 10:31:30;;;;;;;15.17;11.23;;;;;;;30.37;100.00;100909.75;5010532;28;20452;-77
2021/08/28 10:33:56;;;;;;;16.23;10.80;;;;;;;30.48;100.00;100919.03;5028349;28;20796;-75
2021/08/28 10:36:23;;;;;;;12.83;11.53;;;;;;;30.59;100.00;100916.34;5032153;28;20192;-76
2021/08/28 10:38:49;;;;;;;13.77;11.23;;;;;;;30.92;100.00;100913.19;5031909;28;20431;-76
2021/08/28 10:41:16;;;;;;;12.53;11.20;;;;;;;30.88;100.00;100917.41;5031935;28;20448;-77
2021/08/28 10:43:43;;;;;;;18.93;12.60;;;;;;;31.18;100.00;100913.81;5031755;28;20986;-76
2021/08/28 10:46:22;;;;;;;13.37;11.23;;;;;;;31.25;100.00;100913.72;5031620;28;20424;-75
2021/08/28 10:48:59;;;;;;;12.63;11.33;;;;;;;31.30;100.00;100924.72;5031545;28;20417;-76
2021/08/28 10:51:36;;;;;;;15.33;10.23;;;;;;;31.43;100.00;100919.03;5031848;28;20496;-75
2021/08/28 10:54:07;;;;;;;16.07;12.50;;;;;;;31.45;100.00;100906.91;5031928;28;20404;-73
2021/08/28 10:57:02;;;;;;;14.50;10.40;;;;;;;31.48;100.00;100908.31;5031593;28;20841;-76
2021/08/28 10:59:29;;;;;;;11.53;10.30;;;;;;;32.06;100.00;100902.00;5031355;28;20996;-76
2021/08/28 11:02:13;;;;;;;30.77;12.37;;;;;;;32.81;100.00;100899.09;5017358;28;20444;-75